Depesza METAR lotniska Warszawa-Okęcie

METAR = EPWA 241930Z 15010KT 9999 FEW033 00/M02 Q1026 BECMG BKN015

STACJA......... EPWA - Warszawa-Okęcie (WAW)
POMIAR......... Mon Nov 24, 20:30 CET
TERAZ.......... Mon Nov 24, 20:50 CET
CZAS........... 20 min temu
WIATR.......... południowo południowo-wschodni (SSE) z prędkością 19 km/h
WIDZIALNOŚĆ.. powyżej 10 kilometrów
CHMURY......... zachmurzenie niewielkie (1/8-2/8)
TEMPERATURA.... 0°C
T.PUNKTU ROSY.. -2°C
WILGOTNOŚĆ... 87%
T.ODCZUWALNA... -5°C
CIŚNIENIE..... 1026 hPa
PROGNOZA....... nastąpi zmiana widzialności do BKN015 metrów

Depesza METAR lotniska Kraków-Balice

METAR = EPKK 241930Z 17001KT 4500 -RA BR BKN060 02/01 Q1026

STACJA......... EPKK - Kraków-Balice (KRK)
POMIAR......... Mon Nov 24, 20:30 CET
TERAZ.......... Mon Nov 24, 20:50 CET
CZAS........... 20 min temu
WIATR.......... południowy (S) z prędkością 2 km/h
WIDZIALNOŚĆ.. 4500 metrów
WARUNKI........ słaby: deszcz  & zamglenie 
CHMURY......... zachmurzenie średnie (5/8-7/8)
TEMPERATURA.... 2°C
T.PUNKTU ROSY.. 1°C
WILGOTNOŚĆ... 93%
CIŚNIENIE..... 1026 hPa

Depesza METAR lotniska Łódź-Lublinek

METAR = EPLL 241930Z 14004KT 5000 RA BR BKN012 02/01 Q1024

STACJA......... EPLL - Łódź-Lublinek (LCJ)
POMIAR......... Mon Nov 24, 20:30 CET
TERAZ.......... Mon Nov 24, 20:50 CET
CZAS........... 20 min temu
WIATR.......... południowo wschodni (SE) z prędkością 7 km/h
WIDZIALNOŚĆ.. 5000 metrów
WARUNKI........ deszcz  & zamglenie 
CHMURY......... zachmurzenie średnie (5/8-7/8)
TEMPERATURA.... 2°C
T.PUNKTU ROSY.. 1°C
WILGOTNOŚĆ... 93%
T.ODCZUWALNA... 0°C
CIŚNIENIE..... 1024 hPa

Depesza METAR lotniska Wrocław-Strachowice

METAR = EPWR 241930Z 26008KT 3000 BR SCT004 OVC011 07/06 Q1024

STACJA......... EPWR - Wrocław-Strachowice (WRO)
POMIAR......... Mon Nov 24, 20:30 CET
TERAZ.......... Mon Nov 24, 20:50 CET
CZAS........... 20 min temu
WIATR.......... zachodni (W) z prędkością 15 km/h
WIDZIALNOŚĆ.. 3000 metrów
WARUNKI........ zamglenie 
CHMURY......... zachmurzenie całkowite (8/8)
TEMPERATURA.... 7°C
T.PUNKTU ROSY.. 6°C
WILGOTNOŚĆ... 93%
T.ODCZUWALNA... 4°C
CIŚNIENIE..... 1024 hPa

Depesza METAR lotniska Katowice-Pyrzowice

METAR = EPKT 241930Z 23009KT 3000 -RA BR SCT011 BKN027 04/02 Q1025

STACJA......... EPKT - Katowice-Pyrzowice (KTW)
POMIAR......... Mon Nov 24, 20:30 CET
TERAZ.......... Mon Nov 24, 20:50 CET
CZAS........... 20 min temu
WIATR.......... południowo-zachodni (SW) z prędkością 17 km/h
WIDZIALNOŚĆ.. 3000 metrów
WARUNKI........ słaby: deszcz  & zamglenie 
CHMURY......... zachmurzenie średnie (5/8-7/8)
TEMPERATURA.... 4°C
T.PUNKTU ROSY.. 2°C
WILGOTNOŚĆ... 87%
T.ODCZUWALNA... 0°C
CIŚNIENIE..... 1025 hPa

Depesza METAR lotniska Gdańsk

METAR = EPGD 241930Z 19004KT 140V250 3000 -DZ BR OVC004 03/03 Q1021

STACJA......... EPGD - Gdańsk im. Lecha Wałęsy (GDN)
POMIAR......... Mon Nov 24, 20:30 CET
TERAZ.......... Mon Nov 24, 20:50 CET
CZAS........... 20 min temu
WIATR.......... południowy (S) z prędkością 7 km/h
WIDZIALNOŚĆ.. 3000 metrów
WARUNKI........ słaby: mżawka  & zamglenie 
CHMURY......... zachmurzenie całkowite (8/8)
TEMPERATURA.... 3°C
T.PUNKTU ROSY.. 3°C
WILGOTNOŚĆ... 100%
T.ODCZUWALNA... 1°C
CIŚNIENIE..... 1021 hPa

Depesza METAR lotniska Poznań-Ławica

METAR = EPPO 241930Z 27005KT 3500 BR BKN005 06/06 Q1024

STACJA......... EPPO - Poznań-Ławica (POZ)
POMIAR......... Mon Nov 24, 20:30 CET
TERAZ.......... Mon Nov 24, 20:50 CET
CZAS........... 20 min temu
WIATR.......... zachodni (W) z prędkością 9 km/h
WIDZIALNOŚĆ.. 3500 metrów
WARUNKI........ zamglenie 
CHMURY......... zachmurzenie średnie (5/8-7/8)
TEMPERATURA.... 6°C
T.PUNKTU ROSY.. 6°C
WILGOTNOŚĆ... 100%
T.ODCZUWALNA... 4°C
CIŚNIENIE..... 1024 hPa

Depesza METAR lotniska Rzeszów-Jasionka

METAR = EPRZ 241930Z 10007KT CAVOK M01/M02 Q1027

STACJA......... EPRZ - Rzeszów-Jasionka (RZE)
POMIAR......... Mon Nov 24, 20:30 CET
TERAZ.......... Mon Nov 24, 20:50 CET
CZAS........... 20 min temu
WIATR.......... wschodni (E) z prędkością 13 km/h
WIDZIALNOŚĆ.. powyżej 10 kilometrów
CHMURY......... bezchmurne niebo
TEMPERATURA.... -1°C
T.PUNKTU ROSY.. -2°C
WILGOTNOŚĆ... 93%
T.ODCZUWALNA... -6°C
CIŚNIENIE..... 1027 hPa

Depesza METAR lotniska Szczecin-Goleniów

METAR = EPSC 241930Z 19002KT 2500 BR FEW001 04/04 Q1023

STACJA......... EPSC - Szczecin-Goleniów (SZZ)
POMIAR......... Mon Nov 24, 20:30 CET
TERAZ.......... Mon Nov 24, 20:50 CET
CZAS........... 20 min temu
WIATR.......... południowy (S) z prędkością 4 km/h
WIDZIALNOŚĆ.. 2500 metrów
WARUNKI........ zamglenie 
CHMURY......... zachmurzenie niewielkie (1/8-2/8)
TEMPERATURA.... 4°C
T.PUNKTU ROSY.. 4°C
WILGOTNOŚĆ... 100%
CIŚNIENIE..... 1023 hPa

Depesza METAR lotniska Lublin-Świdnik

METAR = EPLB 170930Z 08006KT 2000 -RA BR FEW006 OVC011 12/11 Q1009

STACJA......... EPLB - Lublin-Świdnik (LUZ)
POMIAR......... Fri Oct 17, 10:30 CEST
TERAZ.......... Mon Nov 24, 20:50 CET
CZAS........... 923:20 godz temu
WIATR.......... wschodni (E) z prędkością 11 km/h
WIDZIALNOŚĆ.. 2000 metrów
WARUNKI........ słaby: deszcz  & zamglenie 
CHMURY......... zachmurzenie całkowite (8/8)
TEMPERATURA.... 12°C
T.PUNKTU ROSY.. 11°C
WILGOTNOŚĆ... 94%
CIŚNIENIE..... 1009 hPa

Sprawdź też: prognoza pogody dla miast w Polsce!